Pagrindinis puslapis
METAR-TAF:

METAR-TAF

Oro uostai :

Stewart International Airport

Newburgh, Niujorko valstija, Jungtinės Amerikos Valstijos

platuma: 41-30N, ilguma: 074-06W, Aukštis: 150 m

Dabartinis oras

Ataskaita buvo paskelbta 40 minutes, ne 06:45 UTC
Vėjas 18 kt iš Vakarų su gūsio iki 22 kt
Temperatūra -3°C
Drėgmė 58%
Slėgis 1007 hPa
Matomumas: 16.1 km
Su prošvaistėmis ne aukštis 5000 ft

METAR: KSWF 280645Z 28018G22KT 10SM BKN050 M03/M10 A2975

Laikas: 02:25 (07:25 UTC)

Prognozė

Ataskaita buvo paskelbta 1 valandą ir 46 minutes, ne 05:39 UTC
Prognozė galioja nuo 28 metu 06 UTC su 29 metu 12 UTC
Vėjas 18 kt iš Vakarų su gūsio iki 28 kt
Matomumas: 10 km
Išsisklaidę debesys ne aukštis 4000 ft
Nuo 28 metu 2100 UTC
Vėjas 12 kt iš Vakarų su gūsio iki 22 kt
Matomumas: 10 km
Mažai debesys ne aukštis 25000 ft
Nuo 28 metu 2300 UTC
Vėjas 9 kt iš Vakarų
Matomumas: 10 km
Mažai debesys ne aukštis 25000 ft

TAF: KSWF 280539Z 2806/2912 27018G28KT P6SM SCT040 FM282100 27012G22KT P6SM FEW250 FM282300 28009KT P6SM FEW250 AMD NOT SKED

Orai ataskaitas ir orų prognozės (METAR, TAF).

turimą stotys yra geltonos ir raudonos taškus žemėlapyje.

Perkelti pele per norėdami pamatyti stoties vardą.

Tada spustelėkite, norėdami matyti oro stebėjimo ir prognozės.

Norėdami pakeisti žemėlapį: spustelėkite ant žalios mygtukų su juodo kryžiaus žemyn,; žalią mygtuką su brūkšneliu, jei norite nutolinti; arba žalių rodyklių gretimoms žemėlapius.


METAR-TAF: